Time;durP1;ratioP1;P1;durP2;ratioP2;P2;SDS_P1;SDS_P2;PMS_P1;PMS_P2;Temp;Humidity;BMP_temperature;BMP_pressure;BME280_temperature;BME280_humidity;BME280_pressure;Samples;Min_cycle;Max_cycle;Signal;HPM_P1;HPM_P2
2022/09/10 00:09:59;;;;;;;1.02;0.43;;;22.30;58.40;;;;;;20646755;28;20046;-75
2022/09/10 00:19:59;;;;;;;0.88;0.60;;;22.30;58.30;;;;;;20645322;28;20158;-75
2022/09/10 00:30:01;;;;;;;0.65;0.40;;;22.30;58.20;;;;;;20662658;28;20045;-75
2022/09/10 00:40:02;;;;;;;1.85;0.50;;;22.30;58.00;;;;;;20611686;28;20038;-75
2022/09/10 00:50:30;;;;;;;1.17;0.60;;;22.30;57.90;;;;;;20627073;28;20045;-75
2022/09/10 01:00:31;;;;;;;0.85;0.40;;;22.30;57.80;;;;;;20627038;28;20367;-75
2022/09/10 01:10:37;;;;;;;1.70;0.40;;;22.30;57.70;;;;;;20642078;28;20030;-75
2022/09/10 01:20:50;;;;;;;0.63;0.40;;;22.30;57.50;;;;;;20658259;28;20456;-75
2022/09/10 01:30:54;;;;;;;0.35;0.30;;;22.30;57.40;;;;;;21042845;22;20119;-76
2022/09/10 01:40:55;;;;;;;0.90;0.40;;;22.30;57.10;;;;;;20724785;28;20037;-76
2022/09/10 01:51:10;;;;;;;0.50;0.40;;;22.30;57.00;;;;;;20723788;28;20472;-77
2022/09/10 02:01:20;;;;;;;0.52;0.30;;;22.30;56.90;;;;;;20740645;28;20657;-76
2022/09/10 02:11:21;;;;;;;1.58;0.68;;;22.30;56.80;;;;;;20724067;28;20030;-77
2022/09/10 02:21:24;;;;;;;0.40;0.30;;;22.30;56.70;;;;;;20722326;28;20038;-77
2022/09/10 02:31:25;;;;;;;0.88;0.30;;;22.20;56.70;;;;;;20721058;28;20439;-77
2022/09/10 02:41:26;;;;;;;0.77;0.57;;;22.30;56.70;;;;;;20720826;28;20046;-76
2022/09/10 02:51:28;;;;;;;1.88;0.50;;;22.30;56.70;;;;;;20719799;28;20034;-77
2022/09/10 03:01:29;;;;;;;1.00;0.50;;;22.20;56.60;;;;;;20734844;28;20495;-77
2022/09/10 03:11:39;;;;;;;1.50;0.55;;;22.20;56.60;;;;;;20704322;28;20384;-77
2022/09/10 03:21:42;;;;;;;0.67;0.30;;;22.20;56.60;;;;;;20701581;28;20096;-77
2022/09/10 03:31:45;;;;;;;0.73;0.35;;;22.20;56.60;;;;;;20717389;28;20038;-77
2022/09/10 03:41:45;;;;;;;0.68;0.40;;;22.20;56.60;;;;;;20715182;28;20550;-77
2022/09/10 03:51:48;;;;;;;0.60;0.30;;;22.20;56.60;;;;;;20699407;28;20029;-77
2022/09/10 04:01:49;;;;;;;2.13;0.52;;;22.20;56.60;;;;;;20714520;28;20034;-77
2022/09/10 04:11:50;;;;;;;0.70;0.30;;;22.20;56.60;;;;;;20698030;28;20580;-77
2022/09/10 04:21:51;;;;;;;2.30;0.35;;;22.20;56.60;;;;;;20712623;28;20084;-78
2022/09/10 04:31:54;;;;;;;0.47;0.30;;;22.20;56.60;;;;;;20697613;28;20076;-77
2022/09/10 04:41:54;;;;;;;0.20;0.20;;;22.20;56.60;;;;;;20695087;28;20128;-76
2022/09/10 04:51:56;;;;;;;0.82;0.30;;;22.20;56.60;;;;;;20711188;28;20075;-76
2022/09/10 05:01:58;;;;;;;1.70;0.25;;;22.20;56.50;;;;;;20695901;28;20140;-77
2022/09/10 05:11:59;;;;;;;1.20;0.28;;;22.20;56.50;;;;;;20711205;28;20057;-78
2022/09/10 05:22:00;;;;;;;1.13;0.30;;;22.20;56.50;;;;;;20727168;28;20038;-78
2022/09/10 05:32:01;;;;;;;0.30;0.30;;;22.20;56.50;;;;;;20710550;28;20041;-79
2022/09/10 05:42:02;;;;;;;0.55;0.55;;;22.20;56.50;;;;;;20693910;28;20042;-77
2022/09/10 05:52:03;;;;;;;0.43;0.30;;;22.20;56.50;;;;;;20692423;28;20034;-78
2022/09/10 06:02:04;;;;;;;1.75;0.20;;;22.20;56.60;;;;;;20714962;28;20476;-77
2022/09/10 06:12:05;;;;;;;0.28;0.28;;;22.20;56.50;;;;;;20708544;28;20034;-77
2022/09/10 06:22:09;;;;;;;0.90;0.38;;;22.20;56.60;;;;;;20721790;28;20377;-76
2022/09/10 06:32:12;;;;;;;0.20;0.20;;;22.20;56.50;;;;;;20707047;28;20144;-78
2022/09/10 06:42:13;;;;;;;0.90;0.57;;;22.20;56.60;;;;;;20720170;28;20129;-78
2022/09/10 06:52:41;;;;;;;1.75;0.30;;;22.20;56.60;;;;;;20725565;28;20026;-77
2022/09/10 07:02:44;;;;;;;0.68;0.30;;;22.10;56.50;;;;;;20731709;28;20037;-73
2022/09/10 07:12:45;;;;;;;1.92;0.50;;;22.20;56.50;;;;;;20715009;28;20038;-73
2022/09/10 07:22:46;;;;;;;2.28;0.30;;;22.20;56.50;;;;;;20710053;28;20540;-73
2022/09/10 07:32:52;;;;;;;1.05;0.30;;;22.20;56.50;;;;;;20643762;28;20050;-78
2022/09/10 07:42:58;;;;;;;0.90;0.30;;;22.20;57.00;;;;;;20649989;28;20031;-75
2022/09/10 07:52:59;;;;;;;1.40;0.40;;;22.30;56.40;;;;;;20630305;28;20072;-73
2022/09/10 08:03:01;;;;;;;0.98;0.30;;;22.30;56.20;;;;;;20628267;28;20042;-72
2022/09/10 08:13:03;;;;;;;0.68;0.30;;;22.30;56.20;;;;;;20609148;28;20030;-74
2022/09/10 08:23:03;;;;;;;0.95;0.22;;;22.30;56.30;;;;;;20653863;28;20038;-73
2022/09/10 08:33:04;;;;;;;0.90;0.35;;;22.30;56.30;;;;;;20640896;28;20038;-73
2022/09/10 08:43:07;;;;;;;1.55;0.40;;;22.30;56.20;;;;;;20636442;28;20030;-73
2022/09/10 08:53:24;;;;;;;0.73;0.40;;;22.30;56.50;;;;;;20632325;28;20042;-74
2022/09/10 09:03:39;;;;;;;1.27;0.50;;;22.40;56.80;;;;;;20611146;28;20039;-74
2022/09/10 09:13:54;;;;;;;2.75;0.70;;;22.40;56.80;;;;;;20642886;28;20046;-76
2022/09/10 09:23:55;;;;;;;2.10;0.93;;;22.40;56.90;;;;;;20610816;28;20030;-73
2022/09/10 09:34:12;;;;;;;4.10;0.65;;;22.40;56.90;;;;;;20613639;28;20109;-74
2022/09/10 09:44:21;;;;;;;1.48;1.30;;;22.40;56.90;;;;;;20641645;28;20042;-74
2022/09/10 09:54:26;;;;;;;0.85;0.45;;;22.40;56.80;;;;;;20640549;28;20042;-76
2022/09/10 10:04:32;;;;;;;1.63;0.60;;;22.40;56.80;;;;;;20622362;28;20038;-75
2022/09/10 10:14:38;;;;;;;2.33;0.47;;;22.40;56.90;;;;;;20638755;28;20073;-74
2022/09/10 10:24:41;;;;;;;2.20;0.57;;;22.40;56.90;;;;;;20652197;28;20114;-75
2022/09/10 10:34:51;;;;;;;0.70;0.40;;;22.40;56.90;;;;;;20650965;28;20053;-73
2022/09/10 10:45:01;;;;;;;0.82;0.40;;;22.40;56.90;;;;;;20617615;28;20034;-74
2022/09/10 10:55:19;;;;;;;1.83;0.57;;;22.40;56.90;;;;;;20649531;28;20042;-75
2022/09/10 11:05:30;;;;;;;1.33;0.38;;;22.40;56.90;;;;;;20645615;28;20034;-67
2022/09/10 11:15:32;;;;;;;2.10;1.55;;;22.40;56.80;;;;;;20727257;28;20050;-70
2022/09/10 11:25:48;;;;;;;0.77;0.40;;;22.50;56.70;;;;;;20726516;28;20045;-70
2022/09/10 11:36:19;;;;;;;0.60;0.38;;;22.50;56.60;;;;;;20645471;28;20042;-70
2022/09/10 11:46:41;;;;;;;0.57;0.40;;;22.50;56.50;;;;;;20638913;28;20149;-70
2022/09/10 11:57:00;;;;;;;3.33;0.70;;;22.60;56.30;;;;;;20628394;28;20049;-72
2022/09/10 12:07:29;;;;;;;4.57;0.55;;;22.70;56.10;;;;;;20628135;28;20058;-71
2022/09/10 12:17:32;;;;;;;2.53;0.47;;;22.80;56.00;;;;;;20655586;28;20112;-70
2022/09/10 12:28:04;;;;;;;2.72;0.40;;;22.90;55.70;;;;;;20643763;28;20484;-76
2022/09/10 12:38:42;;;;;;;1.95;0.38;;;23.00;55.40;;;;;;20609327;28;20185;-74
2022/09/10 12:48:47;;;;;;;1.40;0.50;;;23.00;55.20;;;;;;20659914;28;20121;-73
2022/09/10 12:58:54;;;;;;;2.72;0.70;;;23.10;55.10;;;;;;20626652;28;20066;-73
2022/09/10 13:08:55;;;;;;;0.57;0.52;;;23.10;54.90;;;;;;20630270;28;20034;-73
2022/09/10 13:19:18;;;;;;;0.47;0.30;;;23.10;54.80;;;;;;20638936;28;20093;-72
2022/09/10 13:29:39;;;;;;;0.38;0.25;;;23.20;54.80;;;;;;20655147;28;20034;-71
2022/09/10 13:40:01;;;;;;;1.33;0.30;;;23.10;54.70;;;;;;20578806;28;20065;-71
2022/09/10 13:50:10;;;;;;;1.65;0.40;;;23.20;54.70;;;;;;20560542;28;20042;-75
2022/09/10 14:00:22;;;;;;;1.95;0.40;;;23.20;54.70;;;;;;20576696;28;20457;-73
2022/09/10 14:10:23;;;;;;;5.40;0.35;;;23.30;54.90;;;;;;20575645;28;20035;-74
2022/09/10 14:20:28;;;;;;;1.40;0.32;;;23.30;54.90;;;;;;20556483;28;20109;-76
2022/09/10 14:30:29;;;;;;;1.30;0.40;;;23.30;54.90;;;;;;20591656;28;20039;-76
2022/09/10 14:40:34;;;;;;;2.37;0.63;;;23.20;54.90;;;;;;20576997;28;20054;-74
2022/09/10 14:50:35;;;;;;;3.80;0.25;;;23.20;54.90;;;;;;20614974;28;20307;-72
2022/09/10 15:00:35;;;;;;;1.27;0.20;;;23.20;55.00;;;;;;20648283;28;20038;-72
2022/09/10 15:10:36;;;;;;;0.47;0.20;;;23.20;55.10;;;;;;20600229;28;20456;-74
2022/09/10 15:20:37;;;;;;;1.75;0.38;;;23.10;55.10;;;;;;20656905;28;20153;-75
2022/09/10 15:30:38;;;;;;;1.27;0.50;;;23.10;55.30;;;;;;20657767;28;20080;-78
2022/09/10 15:40:39;;;;;;;1.98;1.02;;;23.10;55.30;;;;;;20644692;28;20046;-74
2022/09/10 15:50:42;;;;;;;0.77;0.60;;;23.10;55.40;;;;;;20646305;28;20026;-73
2022/09/10 16:00:42;;;;;;;1.23;0.60;;;23.10;55.50;;;;;;20634204;28;20299;-72
2022/09/10 16:10:43;;;;;;;1.27;0.63;;;23.10;55.70;;;;;;20638966;28;20062;-74
2022/09/10 16:20:43;;;;;;;1.00;0.50;;;23.10;55.80;;;;;;20652036;28;20061;-73
2022/09/10 16:30:45;;;;;;;0.90;0.50;;;23.10;55.80;;;;;;20624676;28;20114;-75
2022/09/10 16:40:45;;;;;;;1.27;0.55;;;23.00;55.90;;;;;;20632418;28;20355;-73
2022/09/10 16:50:46;;;;;;;2.15;0.68;;;23.00;56.00;;;;;;20612101;28;20504;-69
2022/09/10 17:00:48;;;;;;;1.60;0.57;;;23.00;56.10;;;;;;20638388;28;20121;-71
2022/09/10 17:10:49;;;;;;;1.73;0.57;;;23.00;56.10;;;;;;20617198;28;20080;-70
2022/09/10 17:20:49;;;;;;;0.70;0.40;;;22.90;56.20;;;;;;20593472;28;20034;-70
2022/09/10 17:30:55;;;;;;;3.63;0.50;;;22.90;56.30;;;;;;20635005;28;20360;-75
2022/09/10 17:40:56;;;;;;;1.13;0.70;;;22.90;56.40;;;;;;20638270;28;20401;-75
2022/09/10 17:50:58;;;;;;;0.90;0.63;;;22.90;56.40;;;;;;20613142;28;20084;-75
2022/09/10 18:01:04;;;;;;;0.93;0.40;;;22.80;56.50;;;;;;20661821;28;20100;-75
2022/09/10 18:11:06;;;;;;;0.77;0.38;;;22.80;56.60;;;;;;20620989;28;20037;-74
2022/09/10 18:21:12;;;;;;;0.35;0.35;;;22.80;56.70;;;;;;20645315;28;20057;-76
2022/09/10 18:31:13;;;;;;;1.20;0.60;;;22.80;56.80;;;;;;20651467;28;20030;-76
2022/09/10 18:41:18;;;;;;;0.55;0.55;;;22.80;56.90;;;;;;20619301;28;20319;-83
2022/09/10 18:51:20;;;;;;;0.32;0.30;;;22.70;57.00;;;;;;20647755;28;20125;-81
2022/09/10 19:01:22;;;;;;;0.30;0.25;;;22.70;57.90;;;;;;20635939;28;20120;-82
2022/09/10 19:11:25;;;;;;;1.42;0.45;;;22.70;57.40;;;;;;20666653;28;20101;-79
2022/09/10 19:21:26;;;;;;;1.13;0.50;;;22.70;57.50;;;;;;20634171;28;20489;-82
2022/09/10 19:31:28;;;;;;;2.15;0.40;;;22.70;57.60;;;;;;20665583;28;20047;-81
2022/09/10 19:41:28;;;;;;;0.47;0.43;;;22.70;57.60;;;;;;20632585;28;20038;-81
2022/09/10 19:51:30;;;;;;;0.90;0.38;;;22.70;57.60;;;;;;20629440;28;20045;-81
2022/09/10 20:01:31;;;;;;;0.52;0.32;;;22.60;57.60;;;;;;20649479;28;20041;-85
2022/09/10 20:11:33;;;;;;;1.08;0.55;;;22.60;57.60;;;;;;20647312;28;20588;-84
2022/09/10 20:21:36;;;;;;;0.30;0.30;;;22.60;57.70;;;;;;20617484;28;20045;-85
2022/09/10 20:31:39;;;;;;;0.77;0.45;;;22.60;57.70;;;;;;20646563;28;20038;-84
2022/09/10 20:41:41;;;;;;;0.35;0.32;;;22.60;57.70;;;;;;20627713;28;20038;-82
2022/09/10 20:51:41;;;;;;;0.60;0.47;;;22.60;57.80;;;;;;20647743;28;20038;-84
2022/09/10 21:01:44;;;;;;;0.53;0.37;;;22.60;57.80;;;;;;20649153;28;20034;-82
2022/09/10 21:11:45;;;;;;;0.43;0.38;;;22.60;57.90;;;;;;20648714;28;20285;-83
2022/09/10 21:21:47;;;;;;;1.23;0.50;;;22.60;57.90;;;;;;20649363;28;20501;-85
2022/09/10 21:31:53;;;;;;;2.83;1.00;;;22.60;58.00;;;;;;20636836;28;20096;-84
2022/09/10 21:41:54;;;;;;;3.35;1.17;;;22.60;58.10;;;;;;20661907;28;20038;-85
2022/09/10 21:51:54;;;;;;;1.33;0.60;;;22.60;58.10;;;;;;20644826;28;20049;-86
2022/09/10 22:01:55;;;;;;;3.65;0.68;;;22.60;58.10;;;;;;20628564;28;20058;-83
2022/09/10 22:11:56;;;;;;;1.30;0.60;;;22.60;58.20;;;;;;20659041;28;20034;-86
2022/09/10 22:21:57;;;;;;;1.40;0.50;;;22.60;58.20;;;;;;20644456;28;20525;-83
2022/09/10 22:31:57;;;;;;;0.95;0.50;;;22.50;58.20;;;;;;20657663;28;20038;-84
2022/09/10 22:41:58;;;;;;;0.80;0.50;;;22.60;58.30;;;;;;20658465;28;20034;-85
2022/09/10 22:51:58;;;;;;;0.60;0.60;;;22.50;58.30;;;;;;20624818;28;20033;-85
2022/09/10 23:01:59;;;;;;;2.95;0.70;;;22.50;58.30;;;;;;20640081;28;20053;-86
2022/09/10 23:12:00;;;;;;;1.30;0.80;;;22.50;58.30;;;;;;20626536;28;20034;-86
2022/09/10 23:22:02;;;;;;;0.60;0.55;;;22.50;58.30;;;;;;20638590;28;20054;-83
2022/09/10 23:32:02;;;;;;;0.70;0.60;;;22.50;58.40;;;;;;20636515;28;20053;-85
2022/09/10 23:42:03;;;;;;;1.83;0.80;;;22.50;58.40;;;;;;20634294;28;20122;-84
2022/09/10 23:52:04;;;;;;;1.23;0.70;;;22.50;58.40;;;;;;20631829;28;20088;-85
